createdAt,value
2023-02-18T00:01:29.635Z,2.00
2023-02-18T00:03:58.338Z,1.90
2023-02-18T00:06:34.106Z,2.50
2023-02-18T00:09:01.589Z,2.90
2023-02-18T00:11:30.904Z,4.50
2023-02-18T00:14:00.808Z,2.20
2023-02-18T00:16:29.219Z,2.20
2023-02-18T00:18:58.594Z,2.20
2023-02-18T00:21:25.815Z,2.60
2023-02-18T00:23:52.645Z,2.30
2023-02-18T00:26:19.809Z,2.30
2023-02-18T00:28:51.178Z,2.50
2023-02-18T00:31:22.101Z,2.30
2023-02-18T00:33:49.133Z,2.60
2023-02-18T00:36:18.562Z,2.60
2023-02-18T00:38:47.702Z,2.20
2023-02-18T00:41:15.139Z,2.80
2023-02-18T00:43:42.463Z,2.00
2023-02-18T00:46:10.482Z,2.10
2023-02-18T00:48:37.309Z,2.30
2023-02-18T00:51:05.274Z,2.50
2023-02-18T00:53:32.513Z,2.60
2023-02-18T00:55:59.077Z,2.40
2023-02-18T00:58:25.752Z,2.30
2023-02-18T01:00:53.469Z,2.20
2023-02-18T01:03:21.739Z,2.50
2023-02-18T01:05:50.156Z,2.10
2023-02-18T01:08:18.192Z,2.00
2023-02-18T01:10:47.856Z,1.80
2023-02-18T01:13:15.890Z,2.00
2023-02-18T01:15:43.160Z,2.40
2023-02-18T01:18:10.688Z,2.00
2023-02-18T01:20:40.852Z,2.00
2023-02-18T01:23:07.576Z,2.20
2023-02-18T01:25:34.909Z,2.20
2023-02-18T01:28:01.800Z,2.50
2023-02-18T01:30:28.425Z,2.10
2023-02-18T01:32:56.775Z,3.50
2023-02-18T01:35:23.826Z,2.70
2023-02-18T01:37:50.609Z,3.20
2023-02-18T01:40:24.587Z,2.10
2023-02-18T01:42:51.164Z,2.30
2023-02-18T01:45:38.348Z,2.20
2023-02-18T01:48:08.016Z,2.50
2023-02-18T01:50:38.137Z,2.70
2023-02-18T01:53:04.712Z,2.90
2023-02-18T01:55:33.165Z,2.70
2023-02-18T01:57:59.966Z,2.40
2023-02-18T02:00:26.577Z,2.90
2023-02-18T02:02:53.508Z,2.30
2023-02-18T02:05:21.367Z,2.60
2023-02-18T02:07:51.675Z,2.70
2023-02-18T02:10:18.629Z,2.70
2023-02-18T02:12:54.913Z,2.90
2023-02-18T02:15:30.181Z,2.70
2023-02-18T02:18:33.896Z,3.00
2023-02-18T02:21:46.845Z,2.50
2023-02-18T02:24:40.957Z,2.20
2023-02-18T02:27:28.756Z,2.40
2023-02-18T02:30:26.575Z,2.20
2023-02-18T02:33:30.901Z,2.00
2023-02-18T02:36:14.299Z,3.00
2023-02-18T02:39:00.325Z,2.00
2023-02-18T02:42:08.189Z,2.40
2023-02-18T02:44:55.806Z,2.30
2023-02-18T02:47:38.061Z,2.50
2023-02-18T02:50:20.909Z,2.30
2023-02-18T02:52:51.958Z,2.00
2023-02-18T02:55:18.700Z,2.10
2023-02-18T02:57:50.353Z,1.90
2023-02-18T03:00:23.011Z,2.10
2023-02-18T03:03:11.953Z,2.40
2023-02-18T03:06:25.213Z,3.10
2023-02-18T03:09:30.048Z,2.80
2023-02-18T03:12:05.340Z,2.80
2023-02-18T03:15:07.050Z,2.20
2023-02-18T03:17:45.912Z,2.60
2023-02-18T03:20:25.464Z,2.10
2023-02-18T03:22:53.276Z,2.50
2023-02-18T03:25:21.209Z,2.30
2023-02-18T03:27:59.542Z,2.00
2023-02-18T03:30:32.757Z,2.80
2023-02-18T03:33:04.001Z,2.40
2023-02-18T03:35:31.169Z,2.30
2023-02-18T03:38:17.333Z,2.50
2023-02-18T03:40:43.937Z,2.70
2023-02-18T03:43:10.504Z,2.30
2023-02-18T03:45:37.038Z,2.20
2023-02-18T03:48:04.236Z,3.00
2023-02-18T03:50:30.709Z,2.60
2023-02-18T03:52:57.187Z,2.50
2023-02-18T03:55:23.732Z,2.20
2023-02-18T03:57:50.320Z,2.40
2023-02-18T04:00:17.492Z,2.30
2023-02-18T04:02:44.068Z,2.30
2023-02-18T04:05:12.499Z,2.20
2023-02-18T04:07:38.998Z,2.50
2023-02-18T04:10:07.756Z,3.10
2023-02-18T04:12:34.292Z,2.40
2023-02-18T04:15:00.837Z,3.20
2023-02-18T04:17:27.328Z,2.80
2023-02-18T04:19:53.868Z,2.00
2023-02-18T04:22:20.555Z,2.70
2023-02-18T04:24:47.147Z,3.00
2023-02-18T04:27:13.683Z,2.90
2023-02-18T04:29:40.410Z,2.20
2023-02-18T04:32:07.029Z,2.80
2023-02-18T04:34:33.594Z,2.60
2023-02-18T04:37:00.132Z,3.20
2023-02-18T04:39:26.661Z,2.50
2023-02-18T04:41:53.295Z,3.40
2023-02-18T04:44:19.910Z,2.80
2023-02-18T04:46:47.380Z,2.30
2023-02-18T04:49:13.904Z,3.10
2023-02-18T04:51:40.390Z,2.50
2023-02-18T04:54:06.945Z,2.20
2023-02-18T04:56:33.423Z,2.90
2023-02-18T04:58:59.995Z,2.60
2023-02-18T05:01:26.588Z,2.90
2023-02-18T05:03:53.323Z,2.80
2023-02-18T05:06:19.850Z,2.30
2023-02-18T05:08:46.352Z,2.60
2023-02-18T05:11:12.846Z,2.30
2023-02-18T05:13:39.405Z,2.40
2023-02-18T05:16:06.418Z,2.20
2023-02-18T05:18:33.319Z,2.30
2023-02-18T05:20:59.976Z,3.00
2023-02-18T05:23:26.815Z,2.70
2023-02-18T05:25:54.716Z,2.90
2023-02-18T05:28:22.015Z,2.30
2023-02-18T05:30:48.642Z,2.30
2023-02-18T05:33:15.200Z,2.30
2023-02-18T05:35:41.745Z,2.40
2023-02-18T05:38:09.300Z,2.20
2023-02-18T05:40:35.773Z,2.80
2023-02-18T05:43:02.338Z,2.60
2023-02-18T05:45:28.917Z,2.30
2023-02-18T05:47:55.434Z,2.20
2023-02-18T05:50:21.949Z,2.80
2023-02-18T05:52:48.466Z,2.60
2023-02-18T05:55:14.990Z,2.60
2023-02-18T05:57:41.547Z,2.80
2023-02-18T06:00:09.572Z,2.60
2023-02-18T06:02:36.911Z,2.30
2023-02-18T06:05:04.784Z,2.50
2023-02-18T06:07:31.328Z,2.40
2023-02-18T06:09:57.864Z,3.10
2023-02-18T06:12:24.620Z,2.70
2023-02-18T06:14:51.322Z,3.10
2023-02-18T06:17:18.185Z,3.60
2023-02-18T06:19:45.418Z,3.20
2023-02-18T06:22:12.806Z,3.30
2023-02-18T06:24:39.587Z,3.00
2023-02-18T06:27:06.803Z,3.50
2023-02-18T06:29:35.260Z,2.90
2023-02-18T06:32:02.026Z,2.30
2023-02-18T06:34:28.682Z,3.30
2023-02-18T06:36:55.551Z,2.70
2023-02-18T06:39:22.253Z,3.00
2023-02-18T06:41:48.724Z,3.60
2023-02-18T06:44:16.710Z,3.40
2023-02-18T06:46:44.156Z,4.40
2023-02-18T06:49:10.702Z,4.90
2023-02-18T06:51:37.268Z,4.20
2023-02-18T06:54:05.268Z,3.80
2023-02-18T06:56:32.133Z,3.40
2023-02-18T06:58:58.726Z,3.20
2023-02-18T07:01:25.318Z,2.90
2023-02-18T07:03:52.050Z,3.00
2023-02-18T07:06:18.630Z,3.00
2023-02-18T07:08:45.411Z,4.20
2023-02-18T07:11:12.006Z,2.90
2023-02-18T07:13:38.499Z,3.60
2023-02-18T07:16:05.551Z,3.00
2023-02-18T07:18:32.264Z,2.70
2023-02-18T07:20:58.806Z,3.10
2023-02-18T07:23:25.345Z,2.70
2023-02-18T07:25:52.021Z,2.80
2023-02-18T07:28:18.648Z,2.90
2023-02-18T07:30:45.177Z,2.90
2023-02-18T07:33:13.515Z,2.70
2023-02-18T07:35:40.125Z,2.70
2023-02-18T07:38:06.717Z,2.30
2023-02-18T07:40:33.348Z,2.30
2023-02-18T07:43:00.120Z,2.60
2023-02-18T07:45:26.782Z,2.40
2023-02-18T07:47:53.354Z,2.20
2023-02-18T07:50:20.081Z,2.70
2023-02-18T07:52:46.616Z,2.80
2023-02-18T07:55:13.229Z,2.90
2023-02-18T07:57:56.645Z,2.80
2023-02-18T08:00:24.277Z,2.60
2023-02-18T08:02:51.001Z,2.60
2023-02-18T08:05:17.807Z,3.00
2023-02-18T08:07:44.497Z,2.70
2023-02-18T08:10:11.176Z,2.50
2023-02-18T08:12:38.038Z,3.00
2023-02-18T08:15:05.275Z,2.70
2023-02-18T08:17:32.125Z,3.30
2023-02-18T08:19:58.918Z,3.10
2023-02-18T08:22:26.607Z,2.70
2023-02-18T08:24:56.493Z,2.40
2023-02-18T08:27:24.068Z,3.10
2023-02-18T08:29:51.467Z,2.70
2023-02-18T08:32:18.331Z,2.60
2023-02-18T08:34:48.081Z,2.80
2023-02-18T08:37:14.888Z,3.10
2023-02-18T08:39:41.591Z,2.70
2023-02-18T08:42:08.181Z,2.70
2023-02-18T08:44:34.701Z,2.80
2023-02-18T08:47:01.340Z,2.90
2023-02-18T08:49:28.033Z,2.70
2023-02-18T08:51:55.518Z,3.00
2023-02-18T08:54:22.417Z,3.50
2023-02-18T08:56:48.935Z,3.20
2023-02-18T08:59:15.436Z,2.50
2023-02-18T09:01:42.069Z,2.80
2023-02-18T09:04:08.735Z,2.70
2023-02-18T09:06:38.195Z,1.90
2023-02-18T09:09:05.236Z,2.00
2023-02-18T09:11:32.077Z,2.10
2023-02-18T09:13:58.744Z,2.20
2023-02-18T09:16:27.542Z,2.30
2023-02-18T09:18:54.043Z,2.20
2023-02-18T09:21:21.960Z,2.90
2023-02-18T09:23:49.507Z,2.20
2023-02-18T09:26:22.254Z,3.00
2023-02-18T09:31:19.842Z,1.90
2023-02-18T09:33:53.546Z,1.80
2023-02-18T09:36:20.514Z,2.50
2023-02-18T09:38:47.753Z,2.40
2023-02-18T09:41:30.662Z,2.30
2023-02-18T09:46:39.400Z,2.00
2023-02-18T09:49:36.782Z,1.80
2023-02-18T09:52:33.983Z,2.20
2023-02-18T09:55:33.442Z,1.40
2023-02-18T09:58:13.399Z,1.60
2023-02-18T10:00:50.243Z,1.50
2023-02-18T10:03:20.438Z,1.20
2023-02-18T10:06:03.924Z,2.10
2023-02-18T10:08:42.969Z,1.70
2023-02-18T10:11:23.030Z,2.00
2023-02-18T10:13:50.315Z,1.60
2023-02-18T10:16:18.782Z,1.80
2023-02-18T10:18:49.249Z,1.70
2023-02-18T10:21:27.015Z,2.00
2023-02-18T10:24:10.043Z,1.30
2023-02-18T10:26:38.163Z,1.70
2023-02-18T10:29:14.457Z,1.70
2023-02-18T10:31:46.211Z,1.80
2023-02-18T10:34:30.002Z,1.20
2023-02-18T10:37:34.742Z,1.50
2023-02-18T10:40:40.410Z,1.40
2023-02-18T10:43:18.276Z,1.80
2023-02-18T10:46:05.117Z,1.80
2023-02-18T10:49:14.770Z,1.70
2023-02-18T10:51:49.852Z,1.70
2023-02-18T10:54:16.393Z,1.50
2023-02-18T10:56:51.667Z,1.40
2023-02-18T10:59:31.418Z,1.60
2023-02-18T11:02:06.206Z,2.00
2023-02-18T11:04:42.125Z,1.40
2023-02-18T11:07:15.861Z,1.40
2023-02-18T11:09:52.216Z,1.80
2023-02-18T11:12:24.734Z,1.70
2023-02-18T11:15:09.546Z,1.30
2023-02-18T11:17:39.264Z,1.60
2023-02-18T11:20:33.929Z,1.40
2023-02-18T11:23:06.673Z,1.90
2023-02-18T11:28:21.493Z,1.90
2023-02-18T11:30:53.858Z,1.80
2023-02-18T11:33:32.714Z,1.80
2023-02-18T11:36:19.578Z,1.50
2023-02-18T11:38:57.862Z,1.70
2023-02-18T11:41:48.312Z,1.90
2023-02-18T11:44:47.897Z,1.60
2023-02-18T11:47:14.501Z,1.90
2023-02-18T11:49:43.808Z,2.50
2023-02-18T11:52:32.862Z,1.80
2023-02-18T11:55:12.015Z,1.80
2023-02-18T11:57:44.177Z,2.40
2023-02-18T12:00:22.190Z,1.70
2023-02-18T12:02:51.891Z,1.70
2023-02-18T12:05:28.136Z,1.70
2023-02-18T12:08:11.202Z,1.60
2023-02-18T12:10:44.188Z,1.60
2023-02-18T12:13:41.060Z,1.90
2023-02-18T12:16:24.320Z,1.40
2023-02-18T12:19:23.608Z,2.00
2023-02-18T12:22:02.695Z,1.50
2023-02-18T12:24:51.343Z,1.80
2023-02-18T12:27:42.632Z,1.90
2023-02-18T12:31:07.142Z,1.50
2023-02-18T12:34:04.604Z,1.60
2023-02-18T12:36:34.126Z,1.40
2023-02-18T12:39:29.484Z,2.10
2023-02-18T12:42:29.643Z,1.50
2023-02-18T12:45:21.188Z,1.70
2023-02-18T12:48:01.036Z,2.00
2023-02-18T12:50:45.717Z,2.00
2023-02-18T12:53:32.377Z,1.50
2023-02-18T12:56:23.666Z,2.30
2023-02-18T12:59:46.820Z,1.90
2023-02-18T13:02:44.137Z,1.70
2023-02-18T13:05:32.802Z,2.00
2023-02-18T13:08:35.476Z,2.10
2023-02-18T13:11:46.231Z,2.20
2023-02-18T13:14:24.146Z,2.50
2023-02-18T13:16:55.549Z,2.40
2023-02-18T13:19:34.378Z,2.30
2023-02-18T13:22:06.707Z,3.00
2023-02-18T13:24:43.394Z,2.50
2023-02-18T13:27:28.005Z,2.70
2023-02-18T13:30:22.458Z,2.90
2023-02-18T13:33:27.477Z,2.90
2023-02-18T13:36:31.828Z,3.40
2023-02-18T13:39:19.240Z,3.60
2023-02-18T13:41:48.591Z,4.30
2023-02-18T13:44:21.605Z,3.70
2023-02-18T13:46:54.735Z,4.00
2023-02-18T13:49:42.833Z,4.00
2023-02-18T13:52:18.859Z,4.10
2023-02-18T13:54:46.155Z,4.70
2023-02-18T13:57:21.985Z,5.40
2023-02-18T14:00:12.434Z,4.00
2023-02-18T14:02:55.768Z,4.70
2023-02-18T14:05:24.309Z,5.00
2023-02-18T14:08:33.945Z,5.00
2023-02-18T14:11:13.166Z,4.80
2023-02-18T14:14:25.484Z,5.00
2023-02-18T14:17:29.372Z,3.80
2023-02-18T14:20:08.393Z,5.10
2023-02-18T14:22:52.092Z,4.70
2023-02-18T14:25:35.839Z,3.50
2023-02-18T14:28:44.456Z,4.40
2023-02-18T14:31:35.565Z,4.40
2023-02-18T14:34:22.376Z,4.70
2023-02-18T14:37:00.566Z,5.40
2023-02-18T14:39:52.291Z,5.30
2023-02-18T14:42:37.920Z,4.00
2023-02-18T14:45:16.921Z,6.20
2023-02-18T14:48:16.517Z,6.40
2023-02-18T14:50:45.999Z,6.30
2023-02-18T14:53:17.953Z,7.40
2023-02-18T14:55:59.571Z,5.20
2023-02-18T14:58:48.542Z,3.60
2023-02-18T15:01:31.375Z,3.90
2023-02-18T15:03:58.537Z,6.50
2023-02-18T15:06:29.752Z,6.70
2023-02-18T15:08:58.274Z,12.10
2023-02-18T15:11:47.586Z,17.80
2023-02-18T15:14:27.275Z,11.20
2023-02-18T15:16:54.376Z,11.40
2023-02-18T15:19:25.832Z,9.10
2023-02-18T15:21:56.031Z,9.50
2023-02-18T15:24:35.351Z,8.40
2023-02-18T15:27:24.952Z,7.70
2023-02-18T15:29:57.032Z,7.60
2023-02-18T15:32:27.219Z,8.40
2023-02-18T15:35:01.040Z,7.60
2023-02-18T15:37:29.012Z,5.60
2023-02-18T15:39:56.576Z,10.10
2023-02-18T15:42:35.830Z,8.10
2023-02-18T15:45:23.844Z,13.80
2023-02-18T15:47:56.653Z,16.60
2023-02-18T15:50:28.443Z,17.50
2023-02-18T15:52:59.277Z,12.10
2023-02-18T15:55:39.065Z,13.30
2023-02-18T15:58:14.514Z,14.50
2023-02-18T16:00:49.077Z,15.70
2023-02-18T16:03:26.587Z,12.90
2023-02-18T16:06:17.008Z,10.90
2023-02-18T16:09:07.381Z,16.40
2023-02-18T16:11:38.545Z,17.90
2023-02-18T16:14:08.105Z,17.00
2023-02-18T16:16:38.833Z,15.70
2023-02-18T16:19:05.596Z,16.00
2023-02-18T16:21:39.341Z,19.50
2023-02-18T16:24:27.745Z,17.30
2023-02-18T16:26:57.152Z,19.00
2023-02-18T16:29:40.234Z,19.90
2023-02-18T16:32:07.221Z,19.20
2023-02-18T16:34:37.810Z,16.70
2023-02-18T16:37:23.411Z,14.10
2023-02-18T16:39:54.196Z,15.90
2023-02-18T16:42:21.345Z,19.90
2023-02-18T16:44:49.398Z,18.50
2023-02-18T16:47:17.508Z,22.90
2023-02-18T16:49:46.040Z,24.90
2023-02-18T16:52:15.568Z,21.30
2023-02-18T16:54:43.105Z,23.70
2023-02-18T16:57:12.821Z,17.70
2023-02-18T16:59:39.429Z,14.00
2023-02-18T17:02:16.787Z,13.80
2023-02-18T17:04:43.350Z,12.20
2023-02-18T17:07:10.810Z,12.20
2023-02-18T17:09:37.839Z,14.00
2023-02-18T17:12:04.591Z,15.00
2023-02-18T17:14:31.505Z,16.50
2023-02-18T17:16:58.485Z,16.40
2023-02-18T17:19:25.060Z,18.30
2023-02-18T17:21:51.760Z,15.50
2023-02-18T17:24:18.824Z,26.50
2023-02-18T17:26:45.544Z,20.60
2023-02-18T17:29:13.190Z,27.30
2023-02-18T17:31:43.853Z,15.70
2023-02-18T17:34:21.197Z,11.60
2023-02-18T17:36:47.767Z,8.20
2023-02-18T17:39:16.980Z,6.20
2023-02-18T17:41:44.003Z,6.90
2023-02-18T17:44:13.685Z,7.30
2023-02-18T17:46:40.334Z,9.20
2023-02-18T17:49:06.933Z,8.30
2023-02-18T17:51:36.156Z,13.60
2023-02-18T17:54:05.771Z,7.80
2023-02-18T17:56:34.765Z,7.00
2023-02-18T17:59:01.305Z,6.50
2023-02-18T18:01:27.951Z,6.20
2023-02-18T18:03:54.705Z,4.40
2023-02-18T18:06:21.457Z,6.00
2023-02-18T18:08:48.241Z,7.50
2023-02-18T18:11:21.709Z,8.10
2023-02-18T18:13:48.668Z,7.80
2023-02-18T18:16:17.032Z,8.00
2023-02-18T18:18:44.150Z,6.20
2023-02-18T18:21:29.318Z,5.20
2023-02-18T18:23:55.956Z,4.60
2023-02-18T18:26:22.833Z,4.60
2023-02-18T18:28:49.446Z,5.50
2023-02-18T18:31:18.594Z,4.60
2023-02-18T18:33:52.294Z,5.30
2023-02-18T18:36:19.735Z,7.90
2023-02-18T18:38:46.520Z,8.30
2023-02-18T18:41:16.146Z,6.80
2023-02-18T18:43:42.762Z,7.80
2023-02-18T18:46:09.556Z,7.30
2023-02-18T18:48:36.240Z,5.40
2023-02-18T18:51:03.090Z,4.40
2023-02-18T18:53:33.400Z,4.60
2023-02-18T18:56:04.221Z,4.40
2023-02-18T18:58:31.180Z,4.40
2023-02-18T19:01:03.793Z,4.40
2023-02-18T19:03:33.187Z,6.20
2023-02-18T19:05:59.803Z,5.50
2023-02-18T19:08:26.468Z,4.90
2023-02-18T19:10:55.997Z,4.00
2023-02-18T19:13:28.759Z,4.50
2023-02-18T19:18:28.402Z,4.50
2023-02-18T19:20:55.702Z,4.40
2023-02-18T19:23:22.299Z,3.60
2023-02-18T19:25:48.883Z,4.50
2023-02-18T19:28:15.694Z,4.30
2023-02-18T19:30:42.593Z,4.70
2023-02-18T19:33:13.025Z,4.40
2023-02-18T19:35:41.212Z,4.70
2023-02-18T19:38:09.782Z,4.80
2023-02-18T19:40:36.790Z,6.40
2023-02-18T19:43:04.448Z,5.40
2023-02-18T19:45:33.207Z,4.60
2023-02-18T19:48:01.220Z,5.00
2023-02-18T19:50:30.786Z,6.00
2023-02-18T19:52:59.314Z,5.60
2023-02-18T19:55:26.123Z,6.30
2023-02-18T19:57:52.946Z,5.80
2023-02-18T20:00:24.363Z,5.30
2023-02-18T20:02:51.106Z,5.60
2023-02-18T20:05:18.745Z,5.30
2023-02-18T20:07:46.190Z,5.90
2023-02-18T20:10:19.471Z,5.70
2023-02-18T20:12:51.607Z,5.90
2023-02-18T20:15:18.617Z,8.20
2023-02-18T20:17:45.265Z,8.30
2023-02-18T20:20:11.897Z,7.20
2023-02-18T20:22:38.525Z,7.00
2023-02-18T20:25:05.605Z,5.90
2023-02-18T20:27:33.424Z,6.30
2023-02-18T20:30:00.092Z,7.50
2023-02-18T20:32:26.779Z,7.70
2023-02-18T20:34:53.290Z,7.80
2023-02-18T20:37:19.946Z,8.00
2023-02-18T20:39:46.627Z,7.60
2023-02-18T20:42:16.619Z,8.00
2023-02-18T20:44:44.881Z,6.40
2023-02-18T20:47:12.877Z,6.50
2023-02-18T20:49:39.991Z,6.10
2023-02-18T20:52:08.065Z,6.50
2023-02-18T20:54:34.860Z,6.70
2023-02-18T20:57:01.882Z,6.40
2023-02-18T20:59:32.722Z,6.20
2023-02-18T21:02:00.354Z,6.30
2023-02-18T21:04:27.339Z,6.70
2023-02-18T21:06:54.697Z,7.80
2023-02-18T21:09:21.425Z,6.60
2023-02-18T21:11:48.415Z,7.50
2023-02-18T21:14:15.116Z,9.10
2023-02-18T21:16:41.946Z,10.60
2023-02-18T21:19:13.464Z,10.90
2023-02-18T21:21:40.811Z,11.00
2023-02-18T21:24:07.596Z,10.00
2023-02-18T21:26:34.603Z,10.50
2023-02-18T21:29:04.988Z,10.80
2023-02-18T21:31:39.196Z,10.50
2023-02-18T21:34:10.794Z,9.30
2023-02-18T21:36:37.934Z,8.30
2023-02-18T21:39:08.300Z,7.80
2023-02-18T21:41:39.911Z,9.20
2023-02-18T21:44:08.303Z,8.90
2023-02-18T21:46:35.945Z,7.60
2023-02-18T21:49:08.709Z,7.60
2023-02-18T21:54:45.862Z,7.50
2023-02-18T21:57:15.657Z,7.00
2023-02-18T21:59:44.553Z,6.30
2023-02-18T22:02:20.900Z,6.00
2023-02-18T22:04:48.588Z,5.60
2023-02-18T22:07:16.506Z,6.50
2023-02-18T22:09:46.656Z,6.60
2023-02-18T22:12:15.442Z,6.40
2023-02-18T22:14:42.933Z,6.90
2023-02-18T22:17:10.049Z,6.30
2023-02-18T22:19:36.772Z,7.00
2023-02-18T22:22:03.432Z,6.70
2023-02-18T22:24:31.359Z,7.30
2023-02-18T22:27:00.771Z,7.40
2023-02-18T22:29:29.327Z,7.20
2023-02-18T22:31:56.100Z,6.80
2023-02-18T22:34:23.504Z,6.60
2023-02-18T22:36:50.030Z,6.60
2023-02-18T22:39:17.226Z,6.10
2023-02-18T22:41:43.914Z,5.70
2023-02-18T22:44:14.166Z,5.20
2023-02-18T22:46:41.128Z,5.60
2023-02-18T22:49:08.426Z,5.60
2023-02-18T22:51:39.192Z,5.70
2023-02-18T22:54:10.782Z,5.60
2023-02-18T22:56:37.445Z,5.30
2023-02-18T22:59:05.212Z,5.00
2023-02-18T23:01:38.056Z,4.70
2023-02-18T23:04:13.508Z,5.20
2023-02-18T23:06:44.067Z,6.00
2023-02-18T23:09:20.529Z,7.10
2023-02-18T23:11:56.825Z,6.20
2023-02-18T23:14:24.930Z,6.30
2023-02-18T23:17:13.684Z,5.70
2023-02-18T23:19:52.101Z,6.60
2023-02-18T23:22:27.616Z,6.70
2023-02-18T23:24:54.150Z,6.60
2023-02-18T23:27:21.703Z,6.30
2023-02-18T23:29:48.920Z,5.90
2023-02-18T23:32:15.806Z,6.10
2023-02-18T23:34:42.472Z,6.30
2023-02-18T23:37:09.551Z,6.60
2023-02-18T23:39:36.344Z,6.30
2023-02-18T23:42:03.067Z,6.00
2023-02-18T23:44:29.710Z,7.10
2023-02-18T23:46:56.295Z,6.80
2023-02-18T23:49:25.096Z,6.90
2023-02-18T23:51:54.671Z,6.40
2023-02-18T23:54:22.371Z,7.00
2023-02-18T23:56:48.980Z,6.50
2023-02-18T23:59:15.644Z,6.60
